Time;durP1;ratioP1;P1;durP2;ratioP2;P2;SDS_P1;SDS_P2;PMS_P1;PMS_P2;Temp;Humidity;BMP_temperature;BMP_pressure;BME280_temperature;BME280_humidity;BME280_pressure;Samples;Min_cycle;Max_cycle;Signal;HPM_P1;HPM_P2
2023/12/18 00:00:28;;;;;;;31.55;11.90;;;9.50;99.90;;;;;;5002820;28;20195;-43
2023/12/18 00:02:54;;;;;;;25.60;11.50;;;9.60;99.90;;;;;;5003149;28;20192;-47
2023/12/18 00:05:20;;;;;;;33.80;11.68;;;9.50;99.90;;;;;;5002371;28;20203;-40
2023/12/18 00:07:45;;;;;;;30.27;12.70;;;9.50;99.90;;;;;;5004176;28;20189;-44
2023/12/18 00:10:11;;;;;;;36.10;13.43;;;9.50;99.90;;;;;;5017005;28;20685;-43
2023/12/18 00:12:37;;;;;;;29.88;11.88;;;9.50;99.90;;;;;;5000984;28;20253;-39
2023/12/18 00:15:04;;;;;;;30.63;13.02;;;9.50;99.90;;;;;;5002425;28;20220;-42
2023/12/18 00:17:30;;;;;;;32.53;12.45;;;9.40;99.90;;;;;;5001926;28;20653;-38
2023/12/18 00:19:56;;;;;;;33.08;12.93;;;9.40;99.90;;;;;;5002155;28;20216;-40
2023/12/18 00:22:21;;;;;;;29.38;12.90;;;9.40;99.90;;;;;;4999838;28;20612;-44
2023/12/18 00:24:47;;;;;;;34.35;13.10;;;9.40;99.90;;;;;;5002243;28;20199;-38
2023/12/18 00:27:13;;;;;;;34.95;12.48;;;9.40;99.90;;;;;;4999773;28;20272;-39
2023/12/18 00:29:39;;;;;;;30.20;12.48;;;9.40;99.90;;;;;;5001895;28;20291;-41
2023/12/18 00:32:06;;;;;;;30.98;12.40;;;9.40;99.90;;;;;;5000882;28;20235;-44
2023/12/18 00:34:32;;;;;;;29.88;11.98;;;9.40;99.90;;;;;;5006598;28;20189;-42
2023/12/18 00:36:57;;;;;;;32.47;12.20;;;9.40;99.90;;;;;;5005528;28;20191;-41
2023/12/18 00:39:23;;;;;;;30.60;12.77;;;9.40;99.90;;;;;;5005143;28;20194;-40
2023/12/18 00:41:51;;;;;;;34.50;12.00;;;9.40;99.90;;;;;;5001797;28;20633;-44
2023/12/18 00:44:17;;;;;;;32.25;12.05;;;9.40;99.90;;;;;;5021243;28;20583;-41
2023/12/18 00:46:43;;;;;;;29.05;12.18;;;9.40;99.90;;;;;;5005836;28;20192;-42
2023/12/18 00:49:09;;;;;;;23.33;11.50;;;9.40;99.90;;;;;;5005355;28;20209;-39
2023/12/18 00:51:35;;;;;;;29.33;11.40;;;9.40;99.90;;;;;;5002937;28;20860;-40
2023/12/18 00:54:01;;;;;;;31.30;11.32;;;9.40;99.90;;;;;;5004876;28;20193;-45
2023/12/18 00:56:27;;;;;;;28.52;11.77;;;9.40;99.90;;;;;;5005050;28;20678;-38
2023/12/18 00:58:52;;;;;;;27.05;11.25;;;9.40;99.90;;;;;;5005382;28;20688;-40
2023/12/18 01:01:18;;;;;;;30.52;11.27;;;9.40;99.90;;;;;;5004655;28;20607;-41
2023/12/18 01:03:44;;;;;;;30.23;11.55;;;9.40;99.90;;;;;;5002315;28;20219;-38
2023/12/18 01:06:10;;;;;;;30.05;10.20;;;9.50;99.90;;;;;;5020179;28;20189;-43
2023/12/18 01:08:36;;;;;;;28.77;11.25;;;9.50;99.90;;;;;;5003765;28;20636;-41
2023/12/18 01:11:03;;;;;;;28.77;10.55;;;9.50;99.90;;;;;;5003831;28;20192;-39
2023/12/18 01:13:30;;;;;;;30.35;11.02;;;9.50;99.90;;;;;;5003402;28;20188;-38
2023/12/18 01:15:56;;;;;;;27.95;11.02;;;9.50;99.90;;;;;;5003351;28;20357;-40
2023/12/18 01:18:22;;;;;;;23.13;9.35;;;9.50;99.90;;;;;;5005180;28;20204;-42
2023/12/18 01:20:48;;;;;;;28.58;10.13;;;9.60;99.90;;;;;;5001323;28;20207;-38
2023/12/18 01:23:14;;;;;;;30.40;10.13;;;9.50;99.90;;;;;;5004114;28;20220;-42
2023/12/18 01:25:40;;;;;;;28.67;10.18;;;9.60;99.90;;;;;;5004040;28;20199;-40
2023/12/18 01:28:06;;;;;;;25.73;10.73;;;9.60;99.90;;;;;;5005100;28;20295;-40
2023/12/18 01:30:32;;;;;;;23.92;10.02;;;9.60;99.90;;;;;;5002621;28;20203;-41
2023/12/18 01:32:58;;;;;;;25.63;10.43;;;9.60;99.90;;;;;;5004087;28;20243;-43
2023/12/18 01:35:23;;;;;;;22.65;9.98;;;9.60;99.90;;;;;;5004065;28;20180;-44
2023/12/18 01:37:49;;;;;;;30.67;9.82;;;9.60;99.90;;;;;;5004086;28;20188;-40
2023/12/18 01:40:15;;;;;;;28.83;10.80;;;9.60;99.90;;;;;;5002922;28;20188;-43
2023/12/18 01:42:45;;;;;;;27.67;10.13;;;9.60;99.90;;;;;;5004563;28;20192;-43
2023/12/18 01:45:11;;;;;;;31.67;10.80;;;9.60;99.90;;;;;;5003699;28;20213;-41
2023/12/18 01:47:38;;;;;;;30.20;10.10;;;9.60;99.90;;;;;;5004958;28;20188;-43
2023/12/18 01:50:05;;;;;;;30.30;11.05;;;9.50;99.90;;;;;;5003586;28;20746;-39
2023/12/18 01:52:33;;;;;;;29.80;10.55;;;9.60;99.90;;;;;;5003392;28;20558;-39
2023/12/18 01:54:59;;;;;;;26.13;10.20;;;9.50;99.90;;;;;;5002198;28;20283;-42
2023/12/18 01:57:25;;;;;;;27.52;10.43;;;9.50;99.90;;;;;;5020135;28;20204;-43
2023/12/18 01:59:52;;;;;;;31.58;10.85;;;9.50;99.90;;;;;;5002765;28;20188;-43
2023/12/18 02:02:18;;;;;;;26.27;10.43;;;9.50;99.90;;;;;;5002065;28;20199;-42
2023/12/18 02:04:45;;;;;;;36.30;10.73;;;9.50;99.90;;;;;;5004121;28;20188;-44
2023/12/18 02:07:11;;;;;;;38.45;10.25;;;9.50;99.90;;;;;;5004100;28;20813;-42
2023/12/18 02:09:37;;;;;;;25.85;10.00;;;9.50;99.90;;;;;;5003025;28;20292;-42
2023/12/18 02:12:04;;;;;;;25.98;9.70;;;9.50;99.90;;;;;;5003246;28;20271;-41
2023/12/18 02:14:30;;;;;;;27.20;9.95;;;9.50;99.90;;;;;;5003900;28;20199;-45
2023/12/18 02:16:56;;;;;;;26.20;9.63;;;9.50;99.90;;;;;;5003936;28;20177;-42
2023/12/18 02:19:26;;;;;;;40.40;10.15;;;9.50;99.90;;;;;;5003604;28;21100;-41
2023/12/18 02:21:54;;;;;;;27.48;9.50;;;9.50;99.90;;;;;;5003494;28;20196;-40
2023/12/18 02:24:20;;;;;;;26.52;8.90;;;9.50;99.90;;;;;;5018364;28;20232;-43
2023/12/18 02:26:47;;;;;;;30.38;8.45;;;9.50;99.90;;;;;;5003524;28;20227;-42
2023/12/18 02:29:13;;;;;;;37.83;9.40;;;9.50;99.90;;;;;;5018803;28;20216;-43
2023/12/18 02:31:39;;;;;;;32.20;8.50;;;9.50;99.90;;;;;;5018851;28;20621;-47
2023/12/18 02:34:05;;;;;;;22.50;8.52;;;9.50;99.90;;;;;;5002597;28;20189;-43
2023/12/18 02:36:31;;;;;;;24.52;8.25;;;9.60;99.90;;;;;;5002744;28;20235;-40
2023/12/18 02:38:57;;;;;;;30.20;8.20;;;9.60;99.90;;;;;;5003566;28;20823;-44
2023/12/18 02:41:23;;;;;;;25.27;8.07;;;9.50;99.90;;;;;;5002296;28;20299;-43
2023/12/18 02:43:49;;;;;;;26.05;8.40;;;9.60;99.90;;;;;;5002091;28;20266;-40
2023/12/18 02:46:15;;;;;;;28.15;8.18;;;9.50;99.90;;;;;;5003776;28;20958;-42
2023/12/18 02:48:41;;;;;;;24.90;8.02;;;9.50;99.90;;;;;;5003050;28;20220;-40
2023/12/18 02:51:07;;;;;;;22.95;8.10;;;9.60;99.90;;;;;;5003123;28;20196;-44
2023/12/18 02:53:33;;;;;;;21.52;7.97;;;9.60;99.90;;;;;;5017947;28;20258;-41
2023/12/18 02:55:59;;;;;;;20.15;7.78;;;9.50;99.90;;;;;;5002714;28;21234;-40
2023/12/18 02:58:25;;;;;;;25.58;8.05;;;9.60;99.90;;;;;;5002111;28;20323;-42
2023/12/18 03:00:50;;;;;;;28.38;8.82;;;9.60;99.90;;;;;;5018196;28;20215;-41
2023/12/18 03:03:17;;;;;;;23.08;7.43;;;9.60;99.90;;;;;;5002605;28;20181;-39
2023/12/18 03:05:43;;;;;;;26.95;7.95;;;9.60;99.90;;;;;;5002781;28;20197;-41
2023/12/18 03:08:09;;;;;;;22.65;7.90;;;9.60;99.90;;;;;;5003412;28;20209;-43
2023/12/18 03:10:35;;;;;;;28.40;7.57;;;9.70;99.90;;;;;;5017762;28;20199;-42
2023/12/18 03:13:00;;;;;;;22.58;7.60;;;9.60;99.90;;;;;;5002507;28;20185;-39
2023/12/18 03:15:27;;;;;;;27.38;7.45;;;9.60;99.90;;;;;;5001756;28;20189;-41
2023/12/18 03:17:53;;;;;;;25.80;7.82;;;9.60;99.90;;;;;;5003622;28;20291;-45
2023/12/18 03:20:19;;;;;;;21.38;7.60;;;9.60;99.90;;;;;;5001831;28;20295;-44
2023/12/18 03:22:45;;;;;;;23.92;7.57;;;9.60;99.90;;;;;;5000673;28;20228;-43
2023/12/18 03:25:10;;;;;;;23.55;7.68;;;9.60;99.90;;;;;;5001768;28;20243;-41
2023/12/18 03:27:36;;;;;;;23.98;7.38;;;9.70;99.90;;;;;;5002629;28;20552;-41
2023/12/18 03:30:03;;;;;;;19.13;6.95;;;9.60;99.90;;;;;;5002129;28;20212;-43
2023/12/18 03:32:29;;;;;;;22.35;7.30;;;9.60;99.90;;;;;;5001905;28;20597;-41
2023/12/18 03:34:55;;;;;;;24.23;7.28;;;9.70;99.90;;;;;;5001347;28;20276;-41
2023/12/18 03:37:21;;;;;;;19.98;6.88;;;9.60;99.90;;;;;;5002936;28;20197;-40
2023/12/18 03:39:46;;;;;;;24.33;7.10;;;9.70;99.90;;;;;;5002174;28;20203;-39
2023/12/18 03:42:12;;;;;;;31.42;7.15;;;9.70;99.90;;;;;;5002264;28;20199;-43
2023/12/18 03:44:38;;;;;;;30.13;7.38;;;9.70;99.90;;;;;;5001829;28;20239;-41
2023/12/18 03:47:04;;;;;;;24.27;6.25;;;9.70;99.90;;;;;;5001210;28;20218;-42
2023/12/18 03:49:30;;;;;;;17.55;6.55;;;9.70;99.90;;;;;;5002919;28;20213;-41
2023/12/18 03:51:56;;;;;;;26.73;7.10;;;9.70;99.90;;;;;;5002336;28;20197;-40
2023/12/18 03:54:21;;;;;;;25.55;7.20;;;9.70;99.90;;;;;;5001650;28;20256;-42
2023/12/18 03:56:47;;;;;;;22.75;6.95;;;9.70;99.90;;;;;;5001994;28;20295;-42
2023/12/18 03:59:13;;;;;;;18.92;7.00;;;9.70;99.90;;;;;;5001621;28;20591;-42
2023/12/18 04:01:39;;;;;;;21.85;6.95;;;9.70;99.90;;;;;;5001308;28;20195;-41
2023/12/18 04:04:06;;;;;;;23.80;6.57;;;9.70;99.90;;;;;;5000629;28;20304;-40
2023/12/18 04:06:32;;;;;;;24.15;7.13;;;9.70;99.90;;;;;;5002570;28;20196;-42
2023/12/18 04:08:57;;;;;;;21.65;6.75;;;9.70;99.90;;;;;;5005640;28;20675;-41
2023/12/18 04:11:23;;;;;;;24.65;7.43;;;9.70;99.90;;;;;;5006549;28;20561;-40
2023/12/18 04:13:50;;;;;;;25.77;7.43;;;9.70;99.90;;;;;;5006181;28;20254;-42
2023/12/18 04:16:16;;;;;;;32.45;8.57;;;9.70;99.90;;;;;;4988857;28;20191;-40
2023/12/18 04:18:42;;;;;;;24.08;7.60;;;9.70;99.90;;;;;;5004757;28;20192;-44
2023/12/18 04:21:08;;;;;;;21.55;7.25;;;9.70;99.90;;;;;;5004970;28;20188;-41
2023/12/18 04:23:34;;;;;;;25.20;7.53;;;9.70;99.90;;;;;;5005154;28;20435;-41
2023/12/18 04:26:00;;;;;;;27.15;7.90;;;9.70;99.90;;;;;;5005443;28;20200;-43
2023/12/18 04:28:26;;;;;;;19.85;7.30;;;9.70;99.90;;;;;;5005933;28;20246;-42
2023/12/18 04:30:52;;;;;;;30.10;8.02;;;9.70;99.90;;;;;;5004289;28;20415;-43
2023/12/18 04:33:18;;;;;;;28.33;8.00;;;9.70;99.90;;;;;;5005729;28;20230;-41
2023/12/18 04:35:43;;;;;;;28.83;7.68;;;9.70;99.90;;;;;;5005620;28;20200;-42
2023/12/18 04:38:09;;;;;;;26.58;7.43;;;9.70;99.90;;;;;;5005382;28;20665;-41
2023/12/18 04:40:35;;;;;;;27.85;7.97;;;9.70;99.90;;;;;;5020754;28;20287;-45
2023/12/18 04:43:01;;;;;;;29.30;8.07;;;9.70;99.90;;;;;;5005201;28;20188;-40
2023/12/18 04:45:27;;;;;;;25.98;8.00;;;9.70;99.90;;;;;;5005441;28;20731;-40
2023/12/18 04:47:53;;;;;;;24.02;8.65;;;9.70;99.90;;;;;;5005456;28;20620;-39
2023/12/18 04:50:19;;;;;;;26.75;7.93;;;9.70;99.90;;;;;;5003502;28;20231;-43
2023/12/18 04:52:45;;;;;;;31.08;8.40;;;9.70;99.90;;;;;;5004740;28;20189;-42
2023/12/18 04:55:10;;;;;;;23.67;8.07;;;9.70;99.90;;;;;;5003195;28;20189;-39
2023/12/18 04:57:36;;;;;;;27.55;8.05;;;9.70;99.90;;;;;;5003843;28;20189;-44
2023/12/18 05:00:03;;;;;;;28.75;8.60;;;9.70;99.90;;;;;;5005144;28;20462;-41
2023/12/18 05:02:30;;;;;;;28.45;8.95;;;9.80;99.90;;;;;;5005120;28;20688;-42
2023/12/18 05:04:56;;;;;;;24.20;7.90;;;9.80;99.90;;;;;;5005382;28;20184;-41
2023/12/18 05:07:22;;;;;;;22.80;8.15;;;9.80;99.90;;;;;;5003850;28;20607;-41
2023/12/18 05:09:48;;;;;;;22.48;8.23;;;9.80;99.90;;;;;;5019233;28;20204;-40
2023/12/18 05:12:14;;;;;;;34.53;8.20;;;9.70;99.90;;;;;;5004457;28;20188;-41
2023/12/18 05:14:40;;;;;;;30.42;8.50;;;9.80;99.90;;;;;;5003736;28;20573;-44
2023/12/18 05:17:05;;;;;;;29.70;8.20;;;9.80;99.90;;;;;;5003950;28;21732;-42
2023/12/18 05:19:31;;;;;;;29.88;8.68;;;9.80;99.90;;;;;;5004267;28;20661;-45
2023/12/18 05:21:57;;;;;;;30.73;8.80;;;9.80;99.90;;;;;;5019854;28;20188;-43
2023/12/18 05:24:23;;;;;;;26.98;8.25;;;9.80;99.90;;;;;;5004420;28;20246;-42
2023/12/18 05:26:49;;;;;;;22.70;8.68;;;9.80;99.90;;;;;;5004926;28;20280;-42
2023/12/18 05:29:15;;;;;;;27.15;9.00;;;9.80;99.90;;;;;;5002679;28;20212;-42
2023/12/18 05:31:41;;;;;;;23.75;9.02;;;9.80;99.90;;;;;;5004198;28;21016;-41
2023/12/18 05:34:06;;;;;;;25.48;9.02;;;9.80;99.90;;;;;;5002827;28;20275;-41
2023/12/18 05:36:32;;;;;;;27.33;9.30;;;9.80;99.90;;;;;;5004661;28;20212;-39
2023/12/18 05:38:58;;;;;;;23.27;9.00;;;9.80;99.90;;;;;;5003366;28;20235;-41
2023/12/18 05:41:24;;;;;;;20.52;9.23;;;9.80;99.90;;;;;;5005349;28;20185;-41
2023/12/18 05:43:50;;;;;;;30.45;9.27;;;9.80;99.90;;;;;;5002909;28;20559;-41
2023/12/18 05:46:16;;;;;;;35.33;9.70;;;9.80;99.90;;;;;;5003829;28;20204;-39
2023/12/18 05:48:42;;;;;;;28.02;9.63;;;9.80;99.90;;;;;;5003664;28;20204;-42
2023/12/18 05:51:18;;;;;;;20.58;9.05;;;9.80;99.90;;;;;;5004227;28;20304;-39
2023/12/18 05:53:44;;;;;;;26.02;9.73;;;9.80;99.90;;;;;;5018885;28;20181;-41
2023/12/18 05:56:11;;;;;;;33.05;10.23;;;9.80;99.90;;;;;;5004218;28;20193;-42
2023/12/18 05:58:37;;;;;;;21.50;9.63;;;9.80;99.90;;;;;;5004048;28;20618;-41
2023/12/18 06:01:03;;;;;;;29.25;9.95;;;9.80;99.90;;;;;;5004017;28;20275;-42
2023/12/18 06:03:28;;;;;;;25.30;10.02;;;9.80;99.90;;;;;;5002221;28;20292;-42
2023/12/18 06:05:55;;;;;;;29.02;9.50;;;9.80;99.90;;;;;;5003223;28;21236;-40
2023/12/18 06:08:20;;;;;;;20.70;8.82;;;9.80;99.90;;;;;;5002576;28;20224;-42
2023/12/18 06:10:46;;;;;;;24.48;9.25;;;9.80;99.90;;;;;;5004567;28;20202;-41
2023/12/18 06:13:12;;;;;;;23.35;8.85;;;9.80;99.90;;;;;;5003498;28;20185;-41
2023/12/18 06:15:38;;;;;;;32.60;9.20;;;9.90;99.90;;;;;;5003406;28;20215;-42
2023/12/18 06:18:04;;;;;;;24.83;8.95;;;9.80;99.90;;;;;;5000275;28;20195;-39
2023/12/18 06:20:30;;;;;;;27.25;9.10;;;9.90;99.90;;;;;;5003582;28;20192;-46
2023/12/18 06:22:56;;;;;;;24.10;9.48;;;9.90;99.90;;;;;;5003300;28;20611;-43
2023/12/18 06:25:22;;;;;;;31.92;9.65;;;9.90;99.90;;;;;;5003258;28;20192;-40
2023/12/18 06:27:47;;;;;;;31.75;9.93;;;9.90;99.90;;;;;;5001948;28;20658;-40
2023/12/18 06:30:15;;;;;;;27.80;9.95;;;9.90;99.90;;;;;;5001065;28;20200;-44
2023/12/18 06:32:41;;;;;;;22.13;9.82;;;9.90;99.90;;;;;;5003399;28;20224;-39
2023/12/18 06:35:07;;;;;;;31.55;10.30;;;9.90;99.90;;;;;;5003161;28;20244;-41
2023/12/18 06:37:33;;;;;;;27.35;9.98;;;9.90;99.90;;;;;;5002510;28;21109;-43
2023/12/18 06:40:00;;;;;;;28.45;9.18;;;9.90;99.90;;;;;;5003104;28;20230;-41
2023/12/18 06:42:26;;;;;;;26.33;9.35;;;9.90;99.90;;;;;;5002534;28;20687;-40
2023/12/18 06:44:51;;;;;;;25.73;9.20;;;9.90;99.90;;;;;;5002176;28;20188;-40
2023/12/18 06:47:17;;;;;;;31.63;10.47;;;9.90;99.90;;;;;;5001814;28;20438;-43
2023/12/18 06:49:43;;;;;;;27.75;10.18;;;9.90;99.90;;;;;;5002990;28;20312;-41
2023/12/18 06:52:09;;;;;;;30.05;10.18;;;9.90;99.90;;;;;;5002292;28;20595;-41
2023/12/18 06:54:35;;;;;;;30.08;11.27;;;9.90;99.90;;;;;;5017944;28;20597;-43
2023/12/18 06:57:02;;;;;;;37.38;11.25;;;9.90;99.90;;;;;;5000322;28;20559;-40
2023/12/18 06:59:28;;;;;;;37.55;10.95;;;9.90;99.90;;;;;;5002490;28;21226;-44
2023/12/18 07:01:54;;;;;;;27.27;11.38;;;9.90;99.90;;;;;;5000748;28;20187;-39
2023/12/18 07:04:20;;;;;;;28.40;11.93;;;9.90;99.90;;;;;;5002874;28;20247;-40
2023/12/18 07:06:46;;;;;;;30.45;11.38;;;9.90;99.90;;;;;;5001870;28;20223;-39
2023/12/18 07:09:11;;;;;;;31.75;11.80;;;9.90;99.90;;;;;;5001028;28;20220;-43
2023/12/18 07:11:37;;;;;;;28.67;12.02;;;9.90;99.90;;;;;;5002550;28;20189;-39
2023/12/18 07:14:03;;;;;;;31.10;11.50;;;9.90;99.90;;;;;;5002146;28;20235;-42
2023/12/18 07:16:29;;;;;;;31.90;12.45;;;9.90;99.90;;;;;;5002612;28;20227;-43
2023/12/18 07:18:55;;;;;;;30.75;12.45;;;9.90;99.90;;;;;;5002041;28;20207;-47
2023/12/18 07:21:21;;;;;;;29.50;12.48;;;9.90;99.90;;;;;;4999916;28;20287;-40
2023/12/18 07:23:47;;;;;;;36.97;12.27;;;9.90;99.90;;;;;;5002371;28;20724;-42
2023/12/18 07:26:13;;;;;;;35.28;12.00;;;9.90;99.90;;;;;;5002449;28;20196;-45
2023/12/18 07:28:41;;;;;;;33.42;13.38;;;9.90;99.90;;;;;;5001566;28;20300;-42
2023/12/18 07:31:07;;;;;;;33.85;13.88;;;9.90;99.90;;;;;;4998863;28;20255;-42
2023/12/18 07:33:33;;;;;;;29.27;12.13;;;9.90;99.90;;;;;;5001561;28;20232;-43
2023/12/18 07:35:59;;;;;;;35.97;12.98;;;9.90;99.90;;;;;;5001505;28;20656;-43
2023/12/18 07:38:25;;;;;;;32.58;13.48;;;9.90;99.90;;;;;;5002428;28;20212;-40
2023/12/18 07:40:51;;;;;;;27.50;12.48;;;9.90;99.90;;;;;;5016252;28;20200;-42
2023/12/18 07:43:17;;;;;;;35.90;12.73;;;9.90;99.90;;;;;;5000868;28;20242;-41
2023/12/18 07:45:43;;;;;;;34.95;12.85;;;9.90;99.90;;;;;;5002799;28;20323;-44
2023/12/18 07:48:08;;;;;;;30.63;13.20;;;10.00;99.90;;;;;;5002154;28;20684;-43
2023/12/18 07:50:34;;;;;;;37.33;12.95;;;9.90;99.90;;;;;;5001186;28;20199;-43
2023/12/18 07:53:00;;;;;;;33.97;13.07;;;9.90;99.90;;;;;;5002071;28;20192;-42
2023/12/18 07:55:26;;;;;;;33.22;12.90;;;9.90;99.90;;;;;;5001295;28;20197;-40
2023/12/18 07:57:52;;;;;;;30.45;13.07;;;9.90;99.90;;;;;;5001808;28;20342;-44
2023/12/18 08:00:18;;;;;;;34.45;13.23;;;9.90;99.90;;;;;;5002526;28;20250;-41
2023/12/18 08:02:44;;;;;;;34.75;13.75;;;10.00;99.90;;;;;;5000463;28;20677;-41
2023/12/18 08:05:10;;;;;;;34.65;12.73;;;10.00;99.90;;;;;;5000594;28;20196;-45
2023/12/18 08:07:36;;;;;;;34.25;13.27;;;10.00;99.90;;;;;;5001324;28;20669;-44
2023/12/18 08:10:02;;;;;;;30.48;11.68;;;10.00;99.90;;;;;;5001326;28;20220;-43
2023/12/18 08:12:29;;;;;;;30.63;12.40;;;10.00;99.90;;;;;;5000460;28;20231;-43
2023/12/18 08:14:55;;;;;;;41.45;12.15;;;10.00;99.90;;;;;;5001136;28;20192;-42
2023/12/18 08:17:21;;;;;;;35.42;11.93;;;10.00;99.90;;;;;;5003172;28;20189;-44
2023/12/18 08:19:47;;;;;;;28.77;11.80;;;10.00;99.90;;;;;;5000902;28;20192;-46
2023/12/18 08:22:14;;;;;;;30.35;11.65;;;10.00;99.90;;;;;;5000082;28;20299;-42
2023/12/18 08:24:41;;;;;;;33.63;13.02;;;10.00;99.90;;;;;;5001263;28;20196;-45
2023/12/18 08:27:07;;;;;;;31.63;12.05;;;10.10;99.90;;;;;;4999718;28;20188;-43
2023/12/18 08:29:33;;;;;;;24.98;12.25;;;10.10;99.90;;;;;;5000726;28;20216;-41
2023/12/18 08:31:59;;;;;;;31.70;12.63;;;10.10;99.90;;;;;;4999481;28;20180;-42
2023/12/18 08:34:25;;;;;;;30.80;12.85;;;10.10;99.90;;;;;;5001509;28;20276;-45
2023/12/18 08:36:52;;;;;;;24.98;12.30;;;10.10;99.90;;;;;;5000431;28;20208;-44
2023/12/18 08:39:18;;;;;;;40.47;13.85;;;10.10;99.90;;;;;;5000697;28;20196;-44
2023/12/18 08:41:46;;;;;;;33.20;13.30;;;10.10;99.90;;;;;;5000961;28;20203;-43
2023/12/18 08:44:11;;;;;;;32.65;13.45;;;10.10;99.90;;;;;;5000480;28;20201;-42
2023/12/18 08:46:38;;;;;;;37.72;14.15;;;10.10;99.90;;;;;;5000888;28;20209;-39
2023/12/18 08:49:04;;;;;;;36.78;12.98;;;10.10;99.90;;;;;;5001474;28;20220;-44
2023/12/18 08:51:30;;;;;;;33.40;13.13;;;10.10;99.90;;;;;;5001227;28;20189;-45
2023/12/18 08:53:56;;;;;;;35.08;13.85;;;10.10;99.90;;;;;;5002807;28;20184;-40
2023/12/18 08:56:24;;;;;;;35.58;13.32;;;10.10;99.90;;;;;;5005011;28;20692;-41
2023/12/18 08:58:52;;;;;;;33.30;12.65;;;10.10;99.90;;;;;;5004704;28;20207;-42
2023/12/18 09:01:18;;;;;;;40.67;12.82;;;10.10;99.90;;;;;;5003261;28;20284;-44
2023/12/18 09:03:51;;;;;;;29.65;12.70;;;10.20;99.90;;;;;;5003072;28;20185;-40
2023/12/18 09:06:17;;;;;;;39.63;13.43;;;10.10;99.90;;;;;;5004435;28;20196;-43
2023/12/18 09:08:42;;;;;;;34.22;12.63;;;10.20;99.90;;;;;;5003024;28;20243;-44
2023/12/18 09:11:09;;;;;;;35.08;13.10;;;10.20;99.90;;;;;;5004755;28;20200;-39
2023/12/18 09:13:36;;;;;;;33.58;12.48;;;10.20;99.90;;;;;;4988428;28;21198;-39
2023/12/18 09:16:04;;;;;;;27.90;11.88;;;10.20;99.90;;;;;;5004046;28;20687;-40
2023/12/18 09:18:31;;;;;;;33.50;12.70;;;10.30;99.90;;;;;;5002716;28;20196;-40
2023/12/18 09:20:56;;;;;;;31.90;12.45;;;10.30;99.90;;;;;;5004593;28;20200;-40
2023/12/18 09:23:22;;;;;;;35.80;11.80;;;10.30;99.90;;;;;;5002709;28;20204;-39
2023/12/18 09:25:49;;;;;;;34.10;12.05;;;10.30;99.90;;;;;;5003365;28;20664;-42
2023/12/18 09:28:15;;;;;;;29.63;11.18;;;10.40;99.90;;;;;;5003123;28;20219;-43
2023/12/18 09:30:41;;;;;;;32.80;11.32;;;10.30;99.90;;;;;;5020384;28;20568;-40
2023/12/18 09:33:07;;;;;;;31.95;11.60;;;10.40;99.90;;;;;;5003570;28;20231;-42
2023/12/18 09:35:33;;;;;;;28.55;12.07;;;10.40;99.90;;;;;;5018625;28;20189;-41
2023/12/18 09:37:59;;;;;;;31.95;12.25;;;10.40;99.90;;;;;;5002779;28;20772;-42
2023/12/18 09:40:25;;;;;;;32.70;11.63;;;10.40;99.90;;;;;;5003552;28;20193;-49
2023/12/18 09:42:54;;;;;;;36.60;12.48;;;10.40;99.90;;;;;;5003576;28;20185;-48
2023/12/18 09:45:25;;;;;;;27.52;11.88;;;10.40;99.90;;;;;;5003406;28;20193;-48
2023/12/18 09:47:52;;;;;;;29.35;12.38;;;10.40;99.90;;;;;;5004091;28;20191;-42
2023/12/18 09:50:19;;;;;;;30.77;13.30;;;10.40;99.90;;;;;;5004028;28;20691;-51
2023/12/18 09:53:01;;;;;;;36.50;13.25;;;10.50;99.90;;;;;;5003356;28;20181;-44
2023/12/18 09:55:30;;;;;;;29.17;13.98;;;10.50;99.90;;;;;;5001612;28;20188;-42
2023/12/18 09:57:58;;;;;;;35.65;13.98;;;10.50;99.90;;;;;;5004342;28;20185;-43
2023/12/18 10:00:25;;;;;;;36.47;14.63;;;10.50;99.90;;;;;;5002291;28;20185;-46
2023/12/18 10:02:52;;;;;;;40.03;14.95;;;10.60;99.90;;;;;;5003557;28;20192;-45
2023/12/18 10:05:18;;;;;;;30.30;14.32;;;10.60;99.90;;;;;;5002952;28;20551;-46
2023/12/18 10:07:45;;;;;;;33.22;14.60;;;10.60;99.90;;;;;;5002194;28;20196;-44
2023/12/18 10:10:11;;;;;;;34.85;13.90;;;10.60;99.90;;;;;;5003360;28;20215;-42
2023/12/18 10:17:43;;;;;;;32.03;14.95;;;10.60;99.90;;;;;;5096221;27;20676;-39
2023/12/18 10:20:11;;;;;;;36.65;14.65;;;10.60;99.90;;;;;;5079714;28;20194;-39
2023/12/18 10:22:40;;;;;;;33.53;14.68;;;10.60;99.90;;;;;;5079678;28;20277;-38
2023/12/18 10:25:06;;;;;;;41.10;16.15;;;10.60;99.90;;;;;;5079387;28;20894;-38
2023/12/18 10:27:33;;;;;;;41.67;18.10;;;10.60;99.90;;;;;;5077935;28;20201;-38
2023/12/18 10:30:02;;;;;;;37.30;17.08;;;10.60;99.90;;;;;;5078616;28;20620;-38
2023/12/18 10:32:29;;;;;;;29.63;17.05;;;10.60;99.90;;;;;;5079217;28;20196;-39
2023/12/18 10:34:55;;;;;;;41.03;18.17;;;10.60;99.90;;;;;;5095129;28;20198;-38
2023/12/18 10:37:25;;;;;;;46.33;19.17;;;10.60;99.90;;;;;;5080196;28;20213;-39
2023/12/18 10:39:53;;;;;;;46.40;19.38;;;10.60;99.90;;;;;;5078127;28;20272;-39
2023/12/18 10:42:31;;;;;;;36.25;19.33;;;10.70;99.90;;;;;;5078991;28;20182;-39
2023/12/18 10:44:59;;;;;;;43.22;19.27;;;10.70;99.90;;;;;;5078880;28;20316;-38
2023/12/18 10:47:30;;;;;;;44.65;19.15;;;10.70;99.90;;;;;;5077753;28;20210;-38
2023/12/18 10:50:01;;;;;;;40.13;19.08;;;10.70;99.90;;;;;;5079351;28;20193;-38
2023/12/18 10:52:32;;;;;;;42.15;19.65;;;10.70;99.90;;;;;;5077544;28;20198;-39
2023/12/18 10:55:04;;;;;;;42.92;19.95;;;10.60;99.90;;;;;;5079084;28;20190;-38
2023/12/18 10:57:36;;;;;;;40.95;20.60;;;10.60;99.90;;;;;;5060317;28;20214;-41
2023/12/18 11:00:03;;;;;;;41.38;20.15;;;10.60;99.90;;;;;;5079861;28;21244;-40
2023/12/18 11:02:34;;;;;;;48.78;20.52;;;10.60;99.90;;;;;;5093286;28;20765;-39
2023/12/18 11:05:00;;;;;;;48.55;21.50;;;10.60;99.90;;;;;;5078487;28;20190;-38
2023/12/18 11:07:27;;;;;;;44.28;20.00;;;10.60;99.90;;;;;;5078797;28;20178;-38
2023/12/18 11:09:54;;;;;;;45.42;20.30;;;10.60;99.90;;;;;;5077331;28;20186;-39
2023/12/18 11:12:21;;;;;;;45.15;19.85;;;10.50;99.90;;;;;;5078560;28;20190;-39
2023/12/18 11:15:20;;;;;;;37.80;20.20;;;10.50;99.90;;;;;;5079317;28;20190;-40
2023/12/18 11:18:16;;;;;;;44.45;19.15;;;10.50;99.90;;;;;;5078492;28;20195;-39
2023/12/18 11:20:42;;;;;;;45.55;19.58;;;10.50;99.90;;;;;;5077268;28;20186;-38
2023/12/18 11:23:11;;;;;;;49.03;19.02;;;10.50;99.90;;;;;;5078994;28;20196;-39
2023/12/18 11:25:46;;;;;;;41.55;19.00;;;10.50;99.90;;;;;;5077111;28;20193;-39
2023/12/18 11:28:12;;;;;;;46.42;19.92;;;10.50;99.90;;;;;;5069217;28;20525;-39
2023/12/18 11:30:42;;;;;;;49.22;19.20;;;10.50;99.90;;;;;;5065937;28;20187;-38
2023/12/18 11:33:10;;;;;;;41.55;18.70;;;10.50;99.90;;;;;;5063275;28;20269;-40
2023/12/18 11:35:37;;;;;;;43.53;19.58;;;10.50;99.90;;;;;;5063123;28;21090;-39
2023/12/18 11:38:10;;;;;;;46.03;19.45;;;10.50;99.90;;;;;;5066363;28;20183;-39
2023/12/18 11:40:40;;;;;;;37.13;18.83;;;10.50;99.90;;;;;;5063669;28;20224;-38
2023/12/18 11:43:26;;;;;;;41.92;18.70;;;10.50;99.90;;;;;;5063996;28;20191;-38
2023/12/18 11:45:59;;;;;;;38.75;19.02;;;10.50;99.90;;;;;;5058237;28;20230;-39
2023/12/18 11:48:25;;;;;;;50.40;18.58;;;10.50;99.90;;;;;;5063763;28;20584;-39
2023/12/18 11:50:51;;;;;;;39.10;18.98;;;10.50;99.90;;;;;;5064114;28;20718;-39
2023/12/18 11:53:23;;;;;;;43.95;18.58;;;10.60;99.90;;;;;;5064090;28;20195;-38
2023/12/18 11:55:51;;;;;;;36.75;18.45;;;10.60;99.90;;;;;;5062992;28;20206;-40
2023/12/18 11:58:26;;;;;;;45.60;19.40;;;10.60;99.90;;;;;;5063982;28;20549;-38
2023/12/18 12:00:54;;;;;;;47.40;18.67;;;10.60;99.90;;;;;;5063949;28;20236;-38
2023/12/18 12:03:22;;;;;;;38.65;18.25;;;10.60;99.90;;;;;;5060393;28;20221;-39
2023/12/18 12:05:49;;;;;;;31.63;17.10;;;10.60;99.90;;;;;;5063664;28;20197;-39
2023/12/18 12:08:15;;;;;;;34.40;18.40;;;10.60;99.90;;;;;;5061977;28;20218;-38
2023/12/18 12:10:49;;;;;;;44.42;19.25;;;10.60;99.90;;;;;;5063272;28;20760;-39
2023/12/18 12:13:19;;;;;;;36.95;17.98;;;10.50;99.90;;;;;;5062685;28;20190;-39
2023/12/18 12:15:56;;;;;;;51.35;18.75;;;10.50;99.90;;;;;;5063632;28;20317;-39
2023/12/18 12:18:23;;;;;;;35.13;17.63;;;10.60;99.90;;;;;;5063769;28;20193;-38
2023/12/18 12:20:49;;;;;;;33.15;16.13;;;10.60;99.90;;;;;;5062346;28;20248;-39
2023/12/18 12:23:16;;;;;;;41.13;16.85;;;10.60;99.90;;;;;;5063848;28;20718;-38
2023/12/18 12:25:42;;;;;;;35.35;16.88;;;10.60;99.90;;;;;;5063722;28;20182;-40
2023/12/18 12:28:08;;;;;;;41.20;16.85;;;10.60;99.90;;;;;;5063635;28;20186;-38
2023/12/18 12:30:35;;;;;;;40.95;18.60;;;10.60;99.90;;;;;;5064492;28;20201;-40
2023/12/18 12:33:03;;;;;;;37.55;16.88;;;10.70;99.90;;;;;;5061955;28;20217;-40
2023/12/18 12:35:32;;;;;;;31.58;15.68;;;10.70;99.90;;;;;;5079231;28;20198;-38
2023/12/18 12:37:59;;;;;;;37.60;16.02;;;10.70;99.90;;;;;;5062617;28;20179;-39